»·PEaware :: N6956H KRDD-KSAC

N6956H :: KRDD-KSAC

FLIGHT INFORMATION

Flight Status: Arrived
Operator: Privately registered:
United States
More flights under this callsign
Pilot: Joe C. (19058)
Aircraft: SOCATA TBM-900
(TBM9)
More flights by this aircraft type
Origin: KRDD Redding Mun
United States
Destination: KSAC Sacramento Executive
United States
More flights between these airports :: More routes between these airports
Route: KENDL3 RBL V23 SAC
File this flight plan on PilotEdge
Remarks:
Altitude:
(Current/Filed)
31,000ft
Speed:
(Current/Filed)
300kts
Departed: 28-Oct-18 12:55 PM
Arrived: 28-Oct-18 01:38 PM
Distance/Time
Traveled:
125nm/0:43
Distance/Time
To Go:
Arrived

Flight Plot

Page will automatically refresh every two minutes.

Flight plan parsing failed; only flown route is shown


Map Options




Map Legend


Flown Route
Filed Route
Departure Airport
Arrival Airport
Navaid (VOR, NDB)
Fix

Horizontal Profiles

Position Reports

Time Latitude Longitude Heading Altitude Ground
Speed
28-Oct-18 12:33 40.509333 -122.298236 1 495ft 0kts
28-Oct-18 12:34 40.509333 -122.298236 1 495ft 0kts
28-Oct-18 12:35 40.509333 -122.298236 1 495ft 0kts
28-Oct-18 12:36 40.509333 -122.298236 1 495ft 0kts
28-Oct-18 12:37 40.509333 -122.298236 1 495ft 0kts
28-Oct-18 12:38 40.509333 -122.298236 1 495ft 0kts
28-Oct-18 12:39 40.509333 -122.298236 1 495ft 0kts
28-Oct-18 12:40 40.509333 -122.298236 1 495ft 0kts
28-Oct-18 12:41 40.509333 -122.298236 1 495ft 0kts
28-Oct-18 12:42 40.509333 -122.298236 1 495ft 0kts
28-Oct-18 12:43 40.509333 -122.298236 1 495ft 0kts
28-Oct-18 12:44 40.509333 -122.298236 1 495ft 0kts
28-Oct-18 12:45 40.509333 -122.298236 1 495ft 0kts
28-Oct-18 12:46 40.509333 -122.298236 1 495ft 0kts
28-Oct-18 12:47 40.509333 -122.298236 1 495ft 0kts
28-Oct-18 12:48 40.509333 -122.298236 1 495ft 0kts
28-Oct-18 12:49 40.509333 -122.298236 1 495ft 0kts
28-Oct-18 12:50 40.509333 -122.298236 1 495ft 0kts
28-Oct-18 12:51 40.508025 -122.298594 177 495ft 0kts
28-Oct-18 12:52 40.507965 -122.298590 177 494ft 5kts
28-Oct-18 12:53 40.503172 -122.297574 137 492ft 15kts
28-Oct-18 12:54 40.501878 -122.295904 136 490ft 0kts
28-Oct-18 12:55 40.501878 -122.295904 136 490ft 0kts
28-Oct-18 12:56 40.502234 -122.294872 1 490ft 27kts
28-Oct-18 12:57 40.530356 -122.286062 71 1730ft 129kts
28-Oct-18 12:58 40.510375 -122.278100 236 4033ft 128kts
28-Oct-18 12:59 40.491811 -122.315805 230 6341ft 123kts
28-Oct-18 13:00 40.469497 -122.358387 231 8076ft 150kts
28-Oct-18 13:02 40.435056 -122.374760 173 10213ft 155kts
28-Oct-18 13:03 40.392719 -122.358234 172 12199ft 165kts
28-Oct-18 13:04 40.349019 -122.340073 173 14039ft 168kts
28-Oct-18 13:05 40.303942 -122.321321 174 15904ft 174kts
28-Oct-18 13:06 40.258294 -122.302352 176 17904ft 175kts
28-Oct-18 13:07 40.211519 -122.282947 176 19646ft 179kts
28-Oct-18 13:08 40.163548 -122.263091 177 21140ft 187kts
28-Oct-18 13:09 40.104448 -122.238687 174 21169ft 249kts
28-Oct-18 13:10 40.036142 -122.203369 169 21153ft 271kts
28-Oct-18 13:11 39.965980 -122.166566 169 21149ft 272kts
28-Oct-18 13:12 39.895989 -122.129938 169 21151ft 272kts
28-Oct-18 13:13 39.826395 -122.093613 168 21157ft 273kts
28-Oct-18 13:14 39.755826 -122.056844 169 21157ft 273kts
28-Oct-18 13:15 39.685477 -122.020261 169 21156ft 273kts
28-Oct-18 13:16 39.615107 -121.983740 169 21157ft 276kts
28-Oct-18 13:17 39.543821 -121.946872 169 21157ft 278kts
28-Oct-18 13:17 39.484150 -121.916044 169 21156ft 278kts
28-Oct-18 13:19 39.400281 -121.872824 169 21155ft 278kts
28-Oct-18 13:19 39.340410 -121.842083 169 21155ft 278kts
28-Oct-18 13:21 39.255630 -121.812114 176 21150ft 271kts
28-Oct-18 13:21 39.193449 -121.791951 176 19927ft 275kts
28-Oct-18 13:22 39.123816 -121.769361 176 18123ft 247kts
28-Oct-18 13:23 39.059314 -121.748555 176 16515ft 234kts
28-Oct-18 13:24 38.997284 -121.728190 173 14981ft 230kts
28-Oct-18 13:25 38.935615 -121.707327 173 13558ft 227kts
28-Oct-18 13:26 38.874709 -121.689266 173 11836ft 237kts
28-Oct-18 13:27 38.810244 -121.672327 173 10166ft 234kts
28-Oct-18 13:28 38.753558 -121.657361 173 10141ft 196kts
28-Oct-18 13:29 38.700594 -121.643218 173 10168ft 218kts
28-Oct-18 13:30 38.637576 -121.638034 183 9144ft 230kts
28-Oct-18 13:31 38.573627 -121.638012 183 7359ft 231kts
28-Oct-18 13:32 38.510035 -121.638807 183 6030ft 220kts
28-Oct-18 13:33 38.448188 -121.640271 183 4413ft 221kts
28-Oct-18 13:34 38.387186 -121.640241 159 2782ft 223kts
28-Oct-18 13:35 38.395793 -121.583234 33 2114ft 183kts
28-Oct-18 13:36 38.432137 -121.559063 24 1872ft 127kts
28-Oct-18 13:37 38.461072 -121.537299 34 1155ft 115kts
28-Oct-18 13:38 38.486923 -121.515895 33 499ft 110kts
28-Oct-18 13:39 38.511463 -121.495600 34 20ft 70kts
28-Oct-18 13:40 38.513548 -121.495527 272 19ft 14kts

Navigation Log

Ident Type
Flight plan parsing failed, navigation log unavailable